createdAt,value
2023-04-22T00:00:43.165Z,5.52
2023-04-22T00:03:11.952Z,5.51
2023-04-22T00:05:40.483Z,5.82
2023-04-22T00:08:09.298Z,5.52
2023-04-22T00:10:37.717Z,5.63
2023-04-22T00:13:05.627Z,5.62
2023-04-22T00:15:33.698Z,5.50
2023-04-22T00:18:02.058Z,5.59
2023-04-22T00:20:32.636Z,5.47
2023-04-22T00:23:00.640Z,4.97
2023-04-22T00:25:28.897Z,4.83
2023-04-22T00:27:56.806Z,4.99
2023-04-22T00:30:24.828Z,5.38
2023-04-22T00:32:53.749Z,4.98
2023-04-22T00:35:21.736Z,4.88
2023-04-22T00:37:49.730Z,5.03
2023-04-22T00:40:18.045Z,4.74
2023-04-22T00:42:49.377Z,4.64
2023-04-22T00:45:20.105Z,4.47
2023-04-22T00:47:49.390Z,4.59
2023-04-22T00:50:17.875Z,4.60
2023-04-22T00:52:45.815Z,4.69
2023-04-22T00:55:13.724Z,4.72
2023-04-22T00:57:42.790Z,4.57
2023-04-22T01:00:12.068Z,4.80
2023-04-22T01:02:40.541Z,4.53
2023-04-22T01:05:10.057Z,4.50
2023-04-22T01:07:38.454Z,4.62
2023-04-22T01:10:07.018Z,4.89
2023-04-22T01:12:35.278Z,4.46
2023-04-22T01:15:05.086Z,4.34
2023-04-22T01:17:34.215Z,4.43
2023-04-22T01:20:04.721Z,4.10
2023-04-22T01:22:37.655Z,4.19
2023-04-22T01:25:07.872Z,4.09
2023-04-22T01:27:36.526Z,4.04
2023-04-22T01:30:09.262Z,4.19
2023-04-22T01:32:41.183Z,4.30
2023-04-22T01:35:10.493Z,3.90
2023-04-22T01:37:39.801Z,4.18
2023-04-22T01:40:10.092Z,4.30
2023-04-22T01:42:39.364Z,3.90
2023-04-22T01:45:07.939Z,4.03
2023-04-22T01:47:35.927Z,4.42
2023-04-22T01:50:04.553Z,4.16
2023-04-22T01:52:33.087Z,3.59
2023-04-22T01:55:02.866Z,3.54
2023-04-22T01:57:31.053Z,4.16
2023-04-22T01:59:59.183Z,3.90
2023-04-22T02:02:27.356Z,3.99
2023-04-22T02:04:55.750Z,3.96
2023-04-22T02:07:23.909Z,3.82
2023-04-22T02:09:51.942Z,3.75
2023-04-22T02:12:20.171Z,3.74
2023-04-22T02:14:48.170Z,3.82
2023-04-22T02:17:36.322Z,4.15
2023-04-22T02:20:05.608Z,3.88
2023-04-22T02:22:36.341Z,3.64
2023-04-22T02:25:05.179Z,3.52
2023-04-22T02:27:34.089Z,3.73
2023-04-22T02:30:01.959Z,3.48
2023-04-22T02:32:31.987Z,3.43
2023-04-22T02:35:00.403Z,3.59
2023-04-22T02:37:28.330Z,3.39
2023-04-22T02:39:56.249Z,3.34
2023-04-22T02:42:24.416Z,3.47
2023-04-22T02:44:52.354Z,3.49
2023-04-22T02:47:21.531Z,3.42
2023-04-22T02:49:49.840Z,3.57
2023-04-22T02:52:17.848Z,3.57
2023-04-22T02:54:45.813Z,3.42
2023-04-22T02:57:14.155Z,4.09
2023-04-22T02:59:42.445Z,4.44
2023-04-22T03:02:11.709Z,4.24
2023-04-22T03:04:41.892Z,4.03
2023-04-22T03:07:09.858Z,4.23
2023-04-22T03:09:37.970Z,4.21
2023-04-22T03:12:09.514Z,4.27
2023-04-22T03:14:37.381Z,4.99
2023-04-22T03:17:05.774Z,4.47
2023-04-22T03:19:34.136Z,4.68
2023-04-22T03:22:02.565Z,4.71
2023-04-22T03:24:30.522Z,4.62
2023-04-22T03:27:04.390Z,5.14
2023-04-22T03:29:32.769Z,5.55
2023-04-22T03:32:01.024Z,4.84
2023-04-22T03:34:29.151Z,5.27
2023-04-22T03:36:57.345Z,5.65
2023-04-22T03:39:26.504Z,5.53
2023-04-22T03:41:54.603Z,5.53
2023-04-22T03:44:22.699Z,5.17
2023-04-22T03:46:51.073Z,5.35
2023-04-22T03:49:19.819Z,5.63
2023-04-22T03:51:47.733Z,6.17
2023-04-22T03:54:16.822Z,6.16
2023-04-22T03:56:58.318Z,6.32
2023-04-22T03:59:27.239Z,6.19
2023-04-22T04:01:55.896Z,6.47
2023-04-22T04:04:25.328Z,6.95
2023-04-22T04:06:53.894Z,7.39
2023-04-22T04:09:21.855Z,7.01
2023-04-22T04:11:50.081Z,7.50
2023-04-22T04:14:18.541Z,8.13
2023-04-22T04:16:47.174Z,7.44
2023-04-22T04:19:16.161Z,7.48
2023-04-22T04:21:44.399Z,7.92
2023-04-22T04:24:12.321Z,8.45
2023-04-22T04:26:41.964Z,8.46
2023-04-22T04:29:10.388Z,9.17
2023-04-22T04:31:38.866Z,9.22
2023-04-22T04:34:08.483Z,8.61
2023-04-22T04:36:37.101Z,9.03
2023-04-22T04:39:07.125Z,9.86
2023-04-22T04:41:35.933Z,10.05
2023-04-22T04:44:04.291Z,9.55
2023-04-22T04:46:35.028Z,9.77
2023-04-22T04:49:04.923Z,10.36
2023-04-22T04:51:33.570Z,9.97
2023-04-22T04:54:01.959Z,10.50
2023-04-22T04:56:32.097Z,9.67
2023-04-22T04:59:02.003Z,10.29
2023-04-22T05:01:30.372Z,11.60
2023-04-22T05:04:00.073Z,11.60
2023-04-22T05:06:28.363Z,10.67
2023-04-22T05:08:57.592Z,12.68
2023-04-22T05:11:25.746Z,12.44
2023-04-22T05:13:54.248Z,11.96
2023-04-22T05:16:23.286Z,11.30
2023-04-22T05:18:51.230Z,12.99
2023-04-22T05:21:20.622Z,13.18
2023-04-22T05:23:49.693Z,12.29
2023-04-22T05:26:17.951Z,12.26
2023-04-22T05:28:46.830Z,13.70
2023-04-22T05:31:16.648Z,12.47
2023-04-22T05:33:44.624Z,14.79
2023-04-22T05:36:12.361Z,13.84
2023-04-22T05:38:41.447Z,13.68
2023-04-22T05:41:09.426Z,12.22
2023-04-22T05:43:37.301Z,14.39
2023-04-22T05:46:06.915Z,14.20
2023-04-22T05:48:35.671Z,13.92
2023-04-22T05:51:04.448Z,16.55
2023-04-22T05:53:33.488Z,15.35
2023-04-22T05:56:02.173Z,16.89
2023-04-22T05:58:30.098Z,17.88
2023-04-22T06:00:58.464Z,16.59
2023-04-22T06:03:29.457Z,13.74
2023-04-22T06:05:58.257Z,16.07
2023-04-22T06:08:26.339Z,18.32
2023-04-22T06:10:54.682Z,17.38
2023-04-22T06:13:23.163Z,16.88
2023-04-22T06:15:52.375Z,16.32
2023-04-22T06:18:21.118Z,17.28
2023-04-22T06:20:49.358Z,16.89
2023-04-22T06:23:17.233Z,19.37
2023-04-22T06:25:46.295Z,16.18
2023-04-22T06:28:22.673Z,18.46
2023-04-22T06:30:51.611Z,15.54
2023-04-22T06:33:22.666Z,18.05
2023-04-22T06:35:51.697Z,16.11
2023-04-22T06:38:19.777Z,17.94
2023-04-22T06:40:48.541Z,18.99
2023-04-22T06:43:17.595Z,17.39
2023-04-22T06:45:57.892Z,17.03
2023-04-22T06:48:28.268Z,20.18
2023-04-22T06:50:57.794Z,19.91
2023-04-22T06:53:27.974Z,18.78
2023-04-22T06:55:56.234Z,18.01
2023-04-22T06:58:24.135Z,17.64
2023-04-22T07:00:52.252Z,20.36
2023-04-22T07:03:21.012Z,20.94
2023-04-22T07:05:55.857Z,21.82
2023-04-22T07:08:24.832Z,20.76
2023-04-22T07:10:53.141Z,17.85
2023-04-22T07:13:22.037Z,19.46
2023-04-22T07:15:50.496Z,20.03
2023-04-22T07:18:18.619Z,18.66
2023-04-22T07:20:46.629Z,19.01
2023-04-22T07:23:14.960Z,17.71
2023-04-22T07:25:42.968Z,21.01
2023-04-22T07:28:11.019Z,21.76
2023-04-22T07:30:39.491Z,22.60
2023-04-22T07:33:07.611Z,22.44
2023-04-22T07:35:35.625Z,22.02
2023-04-22T07:38:03.998Z,23.37
2023-04-22T07:40:31.922Z,24.94
2023-04-22T07:42:59.897Z,23.30
2023-04-22T07:45:28.370Z,23.35
2023-04-22T07:47:56.686Z,22.28
2023-04-22T07:50:24.747Z,21.46
2023-04-22T07:52:53.127Z,24.34
2023-04-22T07:55:21.146Z,25.39
2023-04-22T07:57:49.139Z,26.54
2023-04-22T08:00:17.958Z,21.72
2023-04-22T08:02:47.896Z,17.37
2023-04-22T08:05:16.396Z,17.41
2023-04-22T08:07:44.346Z,18.15
2023-04-22T08:10:12.941Z,17.40
2023-04-22T08:12:41.041Z,15.67
2023-04-22T08:15:09.592Z,16.10
2023-04-22T08:17:38.001Z,17.64
2023-04-22T08:20:08.196Z,18.35
2023-04-22T08:22:37.027Z,16.38
2023-04-22T08:25:09.275Z,20.84
2023-04-22T08:27:38.588Z,21.10
2023-04-22T08:30:07.876Z,23.69
2023-04-22T08:32:36.293Z,21.35
2023-04-22T08:35:05.526Z,21.77
2023-04-22T08:37:35.136Z,23.04
2023-04-22T08:40:05.220Z,20.85
2023-04-22T08:42:34.128Z,22.00
2023-04-22T08:45:04.779Z,21.74
2023-04-22T08:47:35.441Z,23.89
2023-04-22T08:50:04.825Z,24.47
2023-04-22T08:52:33.473Z,24.29
2023-04-22T08:55:01.446Z,22.66
2023-04-22T08:57:33.098Z,18.61
2023-04-22T09:00:01.433Z,17.24
2023-04-22T09:02:34.509Z,15.46
2023-04-22T09:05:09.520Z,14.68
2023-04-22T09:07:38.976Z,14.16
2023-04-22T09:10:08.716Z,14.23
2023-04-22T09:12:40.644Z,14.51
2023-04-22T09:15:10.562Z,14.88
2023-04-22T09:17:39.529Z,14.18
2023-04-22T09:20:09.209Z,15.94
2023-04-22T09:22:49.292Z,18.50
2023-04-22T09:25:21.890Z,24.17
2023-04-22T09:27:55.307Z,23.89
2023-04-22T09:30:35.212Z,20.39
2023-04-22T09:33:06.790Z,16.68
2023-04-22T09:35:40.182Z,16.00
2023-04-22T09:38:11.290Z,14.50
2023-04-22T09:40:43.426Z,14.09
2023-04-22T09:43:12.427Z,13.72
2023-04-22T09:45:42.369Z,13.78
2023-04-22T09:48:19.326Z,15.90
2023-04-22T09:50:50.208Z,15.96
2023-04-22T09:53:20.445Z,20.17
2023-04-22T09:55:51.457Z,19.81
2023-04-22T09:58:21.304Z,22.58
2023-04-22T10:00:52.459Z,22.42
2023-04-22T10:03:21.192Z,22.86
2023-04-22T10:05:49.393Z,19.57
2023-04-22T10:08:17.882Z,18.48
2023-04-22T10:10:46.887Z,18.07
2023-04-22T10:13:15.075Z,16.36
2023-04-22T10:16:09.528Z,15.77
2023-04-22T10:18:40.189Z,14.97
2023-04-22T10:21:08.376Z,15.40
2023-04-22T10:23:36.280Z,14.90
2023-04-22T10:26:06.296Z,14.87
2023-04-22T10:28:34.293Z,15.92
2023-04-22T10:31:08.014Z,15.92
2023-04-22T10:33:36.952Z,15.82
2023-04-22T10:36:20.506Z,17.38
2023-04-22T10:38:55.094Z,16.46
2023-04-22T10:41:34.657Z,18.59
2023-04-22T10:44:08.432Z,17.14
2023-04-22T10:46:40.412Z,16.20
2023-04-22T10:49:20.891Z,15.90
2023-04-22T10:51:51.093Z,17.91
2023-04-22T10:54:37.886Z,18.62
2023-04-22T10:57:19.665Z,17.14
2023-04-22T10:59:53.296Z,15.35
2023-04-22T11:02:23.198Z,15.88
2023-04-22T11:04:54.914Z,18.15
2023-04-22T11:07:30.482Z,15.50
2023-04-22T11:10:08.290Z,15.34
2023-04-22T11:12:36.314Z,16.32
2023-04-22T11:15:11.298Z,15.26
2023-04-22T11:17:42.986Z,15.84
2023-04-22T11:20:13.228Z,18.30
2023-04-22T11:22:52.458Z,23.00
2023-04-22T11:25:25.065Z,21.95
2023-04-22T11:27:54.779Z,19.82
2023-04-22T11:30:25.856Z,18.93
2023-04-22T11:32:56.682Z,17.57
2023-04-22T11:35:34.615Z,16.30
2023-04-22T11:38:04.585Z,17.61
2023-04-22T11:40:38.852Z,16.16
2023-04-22T11:43:09.742Z,15.58
2023-04-22T11:45:40.260Z,15.22
2023-04-22T11:48:13.358Z,15.41
2023-04-22T11:50:45.061Z,16.07
2023-04-22T11:53:17.606Z,15.30
2023-04-22T11:55:49.092Z,15.84
2023-04-22T11:58:25.377Z,16.96
2023-04-22T12:00:55.119Z,16.06
2023-04-22T12:03:27.038Z,16.27
2023-04-22T12:05:56.417Z,17.31
2023-04-22T12:08:31.961Z,18.34
2023-04-22T12:11:02.586Z,17.36
2023-04-22T12:13:42.910Z,17.70
2023-04-22T12:16:13.104Z,17.35
2023-04-22T12:18:52.400Z,17.06
2023-04-22T12:21:25.124Z,17.70
2023-04-22T12:23:56.276Z,17.69
2023-04-22T12:26:27.578Z,17.44
2023-04-22T12:28:58.658Z,19.86
2023-04-22T12:31:27.731Z,20.01
2023-04-22T12:34:00.462Z,18.53
2023-04-22T12:36:29.441Z,17.15
2023-04-22T12:38:58.020Z,16.41
2023-04-22T12:41:26.292Z,15.42
2023-04-22T12:43:55.770Z,15.14
2023-04-22T12:46:24.509Z,15.12
2023-04-22T12:48:52.642Z,14.82
2023-04-22T12:51:20.959Z,15.53
2023-04-22T12:53:49.410Z,16.67
2023-04-22T12:56:17.704Z,16.10
2023-04-22T12:58:45.838Z,16.68
2023-04-22T13:01:14.949Z,16.61
2023-04-22T13:03:44.049Z,16.54
2023-04-22T13:06:12.496Z,19.37
2023-04-22T13:08:40.843Z,21.33
2023-04-22T13:11:09.282Z,20.62
2023-04-22T13:13:37.390Z,19.95
2023-04-22T13:16:06.288Z,17.40
2023-04-22T13:18:34.659Z,15.98
2023-04-22T13:21:02.795Z,15.80
2023-04-22T13:23:31.285Z,15.66
2023-04-22T13:25:59.110Z,15.29
2023-04-22T13:28:27.825Z,15.30
2023-04-22T13:30:56.195Z,16.58
2023-04-22T13:33:24.322Z,19.60
2023-04-22T13:35:55.092Z,21.41
2023-04-22T13:38:23.791Z,23.05
2023-04-22T13:40:51.815Z,24.16
2023-04-22T13:43:19.735Z,24.50
2023-04-22T13:45:48.937Z,25.13
2023-04-22T13:48:17.279Z,25.45
2023-04-22T13:50:45.905Z,26.00
2023-04-22T13:53:14.574Z,24.58
2023-04-22T13:55:43.653Z,21.94
2023-04-22T13:58:11.806Z,20.55
2023-04-22T14:00:40.139Z,18.84
2023-04-22T14:03:08.724Z,17.51
2023-04-22T14:05:37.310Z,16.07
2023-04-22T14:08:05.453Z,15.85
2023-04-22T14:10:33.733Z,15.49
2023-04-22T14:13:01.833Z,15.67
2023-04-22T14:15:29.765Z,15.58
2023-04-22T14:17:58.204Z,16.42
2023-04-22T14:20:26.396Z,19.28
2023-04-22T14:22:54.272Z,21.45
2023-04-22T14:25:22.486Z,23.14
2023-04-22T14:27:50.470Z,24.46
2023-04-22T14:30:18.795Z,25.18
2023-04-22T14:32:47.243Z,25.80
2023-04-22T14:35:15.468Z,25.60
2023-04-22T14:37:45.399Z,25.98
2023-04-22T14:40:13.996Z,26.55
2023-04-22T14:42:42.169Z,25.98
2023-04-22T14:45:10.633Z,24.82
2023-04-22T14:47:38.968Z,24.91
2023-04-22T14:50:07.269Z,24.82
2023-04-22T14:52:35.307Z,24.57
2023-04-22T14:55:15.528Z,24.94
2023-04-22T14:57:49.729Z,24.50
2023-04-22T15:00:18.537Z,24.52
2023-04-22T15:02:46.896Z,24.82
2023-04-22T15:05:15.524Z,24.83
2023-04-22T15:07:46.527Z,25.30
2023-04-22T15:10:17.162Z,24.85
2023-04-22T15:12:47.078Z,25.08
2023-04-22T15:15:16.371Z,24.92
2023-04-22T15:17:45.018Z,24.80
2023-04-22T15:20:14.343Z,24.79
2023-04-22T15:22:42.581Z,24.16
2023-04-22T15:25:14.737Z,24.00
2023-04-22T15:27:44.698Z,22.04
2023-04-22T15:30:12.881Z,18.50
2023-04-22T15:32:41.424Z,17.57
2023-04-22T15:35:10.473Z,16.94
2023-04-22T15:37:39.684Z,16.60
2023-04-22T15:40:08.411Z,15.76
2023-04-22T15:42:40.090Z,14.93
2023-04-22T15:45:08.879Z,15.51
2023-04-22T15:47:37.679Z,17.28
2023-04-22T15:50:06.801Z,18.02
2023-04-22T15:52:36.008Z,19.04
2023-04-22T15:55:05.373Z,19.86
2023-04-22T15:57:37.212Z,19.79
2023-04-22T16:00:12.531Z,18.38
2023-04-22T16:02:44.945Z,18.88
2023-04-22T16:05:15.055Z,18.74
2023-04-22T16:07:43.238Z,18.28
2023-04-22T16:10:11.393Z,18.17
2023-04-22T16:12:39.856Z,17.81
2023-04-22T16:15:08.683Z,17.57
2023-04-22T16:17:38.182Z,17.24
2023-04-22T16:20:07.806Z,17.28
2023-04-22T16:22:35.763Z,16.72
2023-04-22T16:25:04.537Z,15.53
2023-04-22T16:27:32.953Z,15.25
2023-04-22T16:30:01.101Z,14.69
2023-04-22T16:32:29.989Z,14.49
2023-04-22T16:34:58.234Z,14.17
2023-04-22T16:37:27.451Z,14.36
2023-04-22T16:39:55.828Z,14.06
2023-04-22T16:42:24.230Z,14.02
2023-04-22T16:44:52.354Z,13.95
2023-04-22T16:47:20.687Z,13.56
2023-04-22T16:49:49.174Z,13.35
2023-04-22T16:52:17.536Z,13.15
2023-04-22T16:54:46.141Z,12.39
2023-04-22T16:57:14.373Z,12.10
2023-04-22T16:59:42.536Z,12.66
2023-04-22T17:02:11.003Z,12.37
2023-04-22T17:04:39.737Z,12.36
2023-04-22T17:07:07.750Z,12.48
2023-04-22T17:09:35.804Z,12.66
2023-04-22T17:12:04.350Z,12.89
2023-04-22T17:14:32.512Z,11.85
2023-04-22T17:17:00.572Z,12.48
2023-04-22T17:19:28.984Z,12.17
2023-04-22T17:21:57.235Z,10.80
2023-04-22T17:24:25.506Z,10.62
2023-04-22T17:26:53.776Z,10.19
2023-04-22T17:29:21.973Z,11.15
2023-04-22T17:31:51.113Z,11.94
2023-04-22T17:34:19.485Z,12.05
2023-04-22T17:36:47.677Z,10.99
2023-04-22T17:39:15.777Z,9.62
2023-04-22T17:41:44.706Z,10.47
2023-04-22T17:44:12.700Z,10.33
2023-04-22T17:46:41.939Z,10.00
2023-04-22T17:49:10.289Z,10.36
2023-04-22T17:51:38.287Z,9.58
2023-04-22T17:54:07.102Z,9.78
2023-04-22T18:02:06.684Z,9.41
2023-04-22T18:07:20.061Z,10.13
2023-04-22T18:09:49.911Z,10.20
2023-04-22T18:12:18.045Z,9.78
2023-04-22T18:14:46.050Z,8.25
2023-04-22T18:20:13.783Z,8.13
2023-04-22T18:22:49.315Z,7.97
2023-04-22T18:25:17.355Z,8.10
2023-04-22T18:27:47.918Z,7.70
2023-04-22T18:30:16.043Z,6.87
2023-04-22T18:32:44.045Z,7.52
2023-04-22T18:35:12.340Z,8.49
2023-04-22T18:37:40.285Z,7.82
2023-04-22T18:40:09.073Z,7.44
2023-04-22T18:42:38.007Z,7.93
2023-04-22T18:45:06.829Z,8.72
2023-04-22T18:47:35.407Z,9.15
2023-04-22T18:50:04.631Z,9.11
2023-04-22T18:52:33.507Z,8.47
2023-04-22T18:55:01.580Z,8.02
2023-04-22T18:57:33.207Z,8.19
2023-04-22T19:00:01.264Z,8.42
2023-04-22T19:02:38.450Z,8.77
2023-04-22T19:05:09.051Z,8.91
2023-04-22T19:07:38.605Z,8.72
2023-04-22T19:10:07.943Z,8.67
2023-04-22T19:12:36.600Z,8.62
2023-04-22T19:15:05.443Z,8.58
2023-04-22T19:17:35.241Z,8.21
2023-04-22T19:20:05.424Z,7.92
2023-04-22T19:22:40.648Z,6.78
2023-04-22T19:25:09.230Z,6.67
2023-04-22T19:27:37.637Z,7.12
2023-04-22T19:30:07.282Z,7.62
2023-04-22T19:32:35.951Z,7.52
2023-04-22T19:35:06.508Z,6.73
2023-04-22T19:37:34.438Z,7.31
2023-04-22T19:40:02.298Z,7.21
2023-04-22T19:42:31.534Z,6.73
2023-04-22T19:45:00.009Z,6.66
2023-04-22T19:47:28.316Z,6.43
2023-04-22T19:49:57.598Z,6.47
2023-04-22T19:52:25.962Z,6.99
2023-04-22T19:54:59.719Z,7.12
2023-04-22T19:57:28.048Z,6.66
2023-04-22T19:59:56.262Z,7.53
2023-04-22T20:02:24.475Z,7.34
2023-04-22T20:04:53.741Z,7.24
2023-04-22T20:07:21.596Z,7.62
2023-04-22T20:09:51.346Z,7.55
2023-04-22T20:12:20.333Z,7.76
2023-04-22T20:14:49.475Z,7.75
2023-04-22T20:17:17.498Z,7.67
2023-04-22T20:19:46.130Z,7.45
2023-04-22T20:22:17.290Z,7.40
2023-04-22T20:24:46.095Z,7.38
2023-04-22T20:27:15.257Z,7.02
2023-04-22T20:29:44.485Z,6.86
2023-04-22T20:32:13.004Z,7.08
2023-04-22T20:34:41.371Z,7.19
2023-04-22T20:37:12.595Z,6.93
2023-04-22T20:39:49.352Z,6.66
2023-04-22T20:42:18.863Z,6.08
2023-04-22T20:44:47.361Z,5.47
2023-04-22T20:47:16.668Z,5.89
2023-04-22T20:49:45.047Z,6.36
2023-04-22T20:52:13.535Z,6.58
2023-04-22T20:54:41.469Z,6.70
2023-04-22T20:57:09.497Z,6.82
2023-04-22T20:59:37.775Z,6.73
2023-04-22T21:02:07.196Z,6.59
2023-04-22T21:04:35.426Z,6.71
2023-04-22T21:07:14.656Z,6.66
2023-04-22T21:09:43.571Z,6.08
2023-04-22T21:12:12.509Z,4.42
2023-04-22T21:14:43.115Z,4.73
2023-04-22T21:17:21.301Z,3.96
2023-04-22T21:19:51.305Z,3.55
2023-04-22T21:22:23.172Z,4.44
2023-04-22T21:24:52.253Z,5.69
2023-04-22T21:27:22.513Z,5.82
2023-04-22T21:29:50.766Z,6.00
2023-04-22T21:32:20.857Z,6.19
2023-04-22T21:34:51.925Z,5.86
2023-04-22T21:37:20.546Z,5.86
2023-04-22T21:39:48.366Z,4.98
2023-04-22T21:42:16.559Z,3.88
2023-04-22T21:44:50.273Z,3.41
2023-04-22T21:47:18.695Z,5.37
2023-04-22T21:49:47.375Z,5.87
2023-04-22T21:52:15.370Z,5.99
2023-04-22T21:54:44.390Z,5.92
2023-04-22T21:57:12.691Z,5.87
2023-04-22T21:59:41.060Z,4.87
2023-04-22T22:02:09.875Z,2.77
2023-04-22T22:04:38.292Z,3.46
2023-04-22T22:07:06.912Z,3.50
2023-04-22T22:09:34.944Z,4.94
2023-04-22T22:12:03.256Z,5.42
2023-04-22T22:14:31.118Z,4.50
2023-04-22T22:16:59.478Z,4.81
2023-04-22T22:19:31.050Z,4.92
2023-04-22T22:21:59.345Z,4.94
2023-04-22T22:24:30.431Z,5.10
2023-04-22T22:26:59.116Z,5.33
2023-04-22T22:29:27.880Z,5.34
2023-04-22T22:31:59.034Z,4.20
2023-04-22T22:34:29.719Z,3.66
2023-04-22T22:36:58.652Z,4.32
2023-04-22T22:39:26.668Z,4.58
2023-04-22T22:41:55.845Z,4.22
2023-04-22T22:44:23.818Z,4.47
2023-04-22T22:46:51.876Z,4.32
2023-04-22T22:49:20.245Z,4.36
2023-04-22T22:51:48.476Z,4.55
2023-04-22T22:54:16.524Z,4.25
2023-04-22T22:56:44.883Z,4.60
2023-04-22T22:59:12.708Z,4.09
2023-04-22T23:01:41.813Z,3.87
2023-04-22T23:04:11.121Z,4.56
2023-04-22T23:06:39.218Z,4.78
2023-04-22T23:09:07.887Z,4.78
2023-04-22T23:11:36.170Z,4.79
2023-04-22T23:14:06.736Z,4.90
2023-04-22T23:16:35.463Z,4.80
2023-04-22T23:19:04.051Z,4.11
2023-04-22T23:21:32.480Z,2.22
2023-04-22T23:24:01.657Z,1.76
2023-04-22T23:26:30.109Z,3.56
2023-04-22T23:28:58.630Z,3.15
2023-04-22T23:31:27.743Z,3.54
2023-04-22T23:33:57.425Z,4.15
2023-04-22T23:36:26.840Z,4.12
2023-04-22T23:38:57.744Z,4.48
2023-04-22T23:41:26.304Z,3.98
2023-04-22T23:43:54.179Z,3.59
2023-04-22T23:46:22.489Z,3.31
2023-04-22T23:48:50.858Z,3.33
2023-04-22T23:51:18.820Z,4.01
2023-04-22T23:53:47.184Z,4.02
2023-04-22T23:56:20.779Z,3.48
2023-04-22T23:58:49.955Z,3.40
